createdAt,value
2023-04-02T00:01:26.843Z,43.75
2023-04-02T00:04:22.591Z,45.00
2023-04-02T00:06:54.670Z,32.00
2023-04-02T00:09:25.158Z,44.50
2023-04-02T00:11:55.938Z,38.50
2023-04-02T00:14:25.968Z,42.50
2023-04-02T00:16:55.935Z,33.00
2023-04-02T00:19:26.945Z,38.50
2023-04-02T00:21:57.794Z,38.50
2023-04-02T00:24:26.092Z,37.75
2023-04-02T00:26:54.699Z,44.00
2023-04-02T00:29:22.800Z,45.25
2023-04-02T00:31:52.598Z,45.75
2023-04-02T00:34:23.354Z,39.25
2023-04-02T00:36:51.913Z,49.25
2023-04-02T00:39:23.371Z,39.50
2023-04-02T00:41:54.799Z,45.00
2023-04-02T00:44:23.900Z,40.50
2023-04-02T00:46:53.056Z,48.00
2023-04-02T00:49:24.046Z,43.75
2023-04-02T00:51:54.097Z,43.25
2023-04-02T00:54:25.793Z,44.00
2023-04-02T00:56:54.832Z,51.00
2023-04-02T00:59:27.889Z,46.00
2023-04-02T01:02:02.013Z,38.00
2023-04-02T01:04:35.061Z,45.20
2023-04-02T01:07:08.785Z,53.40
2023-04-02T01:09:48.489Z,59.00
2023-04-02T01:12:32.544Z,48.75
2023-04-02T01:15:05.717Z,39.75
2023-04-02T01:17:39.929Z,50.25
2023-04-02T01:20:25.600Z,38.50
2023-04-02T01:22:58.038Z,46.25
2023-04-02T01:25:29.869Z,42.50
2023-04-02T01:28:01.387Z,33.75
2023-04-02T01:30:31.143Z,46.25
2023-04-02T01:32:59.362Z,41.75
2023-04-02T01:35:30.717Z,42.25
2023-04-02T01:38:03.410Z,47.25
2023-04-02T01:40:36.953Z,49.25
2023-04-02T01:43:11.749Z,48.00
2023-04-02T01:45:41.207Z,41.25
2023-04-02T01:48:15.107Z,50.25
2023-04-02T01:50:44.324Z,46.00
2023-04-02T01:53:14.851Z,41.75
2023-04-02T01:55:44.911Z,47.25
2023-04-02T01:58:14.277Z,42.25
2023-04-02T02:00:49.230Z,46.25
2023-04-02T02:03:17.943Z,44.00
2023-04-02T02:05:46.521Z,44.75
2023-04-02T02:08:28.968Z,46.50
2023-04-02T02:10:57.966Z,40.75
2023-04-02T02:13:26.078Z,43.25
2023-04-02T02:15:58.346Z,44.00
2023-04-02T02:18:27.690Z,50.00
2023-04-02T02:20:56.295Z,43.75
2023-04-02T02:23:24.649Z,50.75
2023-04-02T02:25:52.754Z,46.50
2023-04-02T02:28:23.545Z,43.00
2023-04-02T02:30:54.032Z,45.50
2023-04-02T02:33:25.601Z,49.00
2023-04-02T02:36:00.778Z,49.50
2023-04-02T02:38:38.552Z,38.50
2023-04-02T02:41:16.878Z,39.00
2023-04-02T02:43:48.479Z,39.00
2023-04-02T02:46:19.544Z,38.75
2023-04-02T02:48:49.532Z,47.25
2023-04-02T02:51:22.050Z,28.25
2023-04-02T02:53:52.460Z,42.00
2023-04-02T02:56:23.231Z,43.00
2023-04-02T02:58:52.520Z,33.50
2023-04-02T03:01:29.793Z,36.50
2023-04-02T03:04:02.122Z,47.00
2023-04-02T03:06:30.748Z,42.00
2023-04-02T03:09:04.698Z,35.75
2023-04-02T03:11:38.224Z,41.75
2023-04-02T03:14:16.933Z,40.00
2023-04-02T03:16:48.023Z,49.25
2023-04-02T03:19:25.880Z,43.50
2023-04-02T03:21:57.241Z,44.25
2023-04-02T03:24:34.147Z,44.50
2023-04-02T03:27:05.055Z,39.00
2023-04-02T03:29:35.429Z,37.50
2023-04-02T03:32:06.846Z,41.50
2023-04-02T03:34:38.989Z,47.25
2023-04-02T03:37:11.865Z,43.50
2023-04-02T03:39:44.300Z,46.00
2023-04-02T03:42:17.149Z,42.25
2023-04-02T03:44:49.502Z,50.75
2023-04-02T03:47:21.179Z,38.75
2023-04-02T03:49:55.168Z,43.75
2023-04-02T03:52:26.025Z,41.75
2023-04-02T03:54:55.916Z,34.00
2023-04-02T03:57:28.329Z,41.25
2023-04-02T04:00:00.646Z,44.75
2023-04-02T04:02:36.739Z,44.50
2023-04-02T04:05:07.535Z,39.50
2023-04-02T04:07:40.017Z,44.50
2023-04-02T04:10:09.797Z,43.50
2023-04-02T04:12:41.757Z,38.75
2023-04-02T04:15:17.855Z,35.00
2023-04-02T04:17:51.758Z,39.50
2023-04-02T04:20:25.977Z,38.00
2023-04-02T04:22:56.207Z,27.25
2023-04-02T04:25:30.592Z,36.50
2023-04-02T04:28:09.091Z,31.50
2023-04-02T04:30:47.790Z,33.00
2023-04-02T04:33:22.539Z,33.25
2023-04-02T04:35:57.390Z,32.75
2023-04-02T04:38:32.909Z,25.25
2023-04-02T04:41:05.116Z,34.50
2023-04-02T04:43:41.805Z,30.25
2023-04-02T04:46:14.002Z,30.75
2023-04-02T04:48:48.508Z,35.75
2023-04-02T04:51:22.287Z,33.00
2023-04-02T04:53:52.484Z,27.50
2023-04-02T04:56:24.860Z,25.00
2023-04-02T04:59:02.210Z,23.75
2023-04-02T05:01:36.555Z,21.25
2023-04-02T05:04:11.213Z,26.25
2023-04-02T05:06:42.002Z,26.75
2023-04-02T05:09:14.975Z,29.75
2023-04-02T05:11:46.563Z,21.50
2023-04-02T05:14:19.875Z,25.75
2023-04-02T05:16:52.616Z,28.75
2023-04-02T05:19:24.869Z,32.75
2023-04-02T05:21:58.990Z,27.25
2023-04-02T05:24:34.671Z,24.50
2023-04-02T05:27:04.664Z,24.75
2023-04-02T05:29:35.765Z,27.00
2023-04-02T05:32:07.524Z,21.75
2023-04-02T05:34:38.413Z,21.75
2023-04-02T05:37:09.396Z,30.75
2023-04-02T05:39:37.815Z,26.75
2023-04-02T05:42:06.878Z,32.50
2023-04-02T05:45:05.388Z,25.25
2023-04-02T05:47:41.137Z,18.50
2023-04-02T05:50:17.741Z,31.50
2023-04-02T05:52:51.951Z,28.75
2023-04-02T05:55:31.584Z,26.25
2023-04-02T05:58:29.444Z,28.75
2023-04-02T06:00:55.824Z,27.00
2023-04-02T06:03:28.163Z,27.75
2023-04-02T06:05:59.397Z,26.25
2023-04-02T06:08:33.152Z,32.00
2023-04-02T06:11:05.737Z,25.75
2023-04-02T06:13:34.419Z,29.25
2023-04-02T06:16:03.522Z,27.25
2023-04-02T06:18:35.272Z,34.75
2023-04-02T06:21:03.867Z,34.25
2023-04-02T06:23:38.644Z,28.75
2023-04-02T06:26:11.627Z,26.75
2023-04-02T06:28:45.498Z,34.25
2023-04-02T06:31:20.016Z,27.25
2023-04-02T06:33:52.458Z,36.75
2023-04-02T06:36:22.633Z,28.25
2023-04-02T06:38:53.525Z,35.50
2023-04-02T06:41:23.282Z,30.75
2023-04-02T06:44:14.837Z,31.75
2023-04-02T06:46:58.261Z,30.25
2023-04-02T06:49:32.089Z,23.75
2023-04-02T06:52:06.580Z,28.75
2023-04-02T06:54:37.092Z,29.00
2023-04-02T06:57:10.770Z,30.25
2023-04-02T06:59:42.123Z,28.00
2023-04-02T07:02:23.161Z,30.50
2023-04-02T07:04:51.411Z,29.00
2023-04-02T07:07:21.189Z,30.25
2023-04-02T07:09:52.225Z,21.75
2023-04-02T07:12:23.790Z,25.00
2023-04-02T07:14:52.309Z,28.25
2023-04-02T07:17:21.662Z,26.75
2023-04-02T07:19:50.525Z,30.25
2023-04-02T07:22:21.746Z,38.50
2023-04-02T07:24:56.482Z,20.25
2023-04-02T07:27:24.673Z,29.25
2023-04-02T07:29:52.804Z,29.00
2023-04-02T07:32:20.983Z,29.25
2023-04-02T07:34:49.235Z,25.00
2023-04-02T07:37:17.457Z,24.50
2023-04-02T07:39:45.725Z,23.75
2023-04-02T07:42:15.385Z,27.00
2023-04-02T07:44:43.717Z,25.25
2023-04-02T07:47:11.976Z,22.25
2023-04-02T07:49:40.226Z,20.00
2023-04-02T07:52:10.507Z,23.25
2023-04-02T07:54:38.604Z,23.50
2023-04-02T07:57:07.180Z,27.50
2023-04-02T07:59:37.033Z,26.75
2023-04-02T08:02:06.123Z,27.25
2023-04-02T08:04:34.364Z,27.00
2023-04-02T08:07:03.190Z,26.00
2023-04-02T08:09:31.288Z,26.50
2023-04-02T08:11:59.395Z,28.50
2023-04-02T08:14:27.581Z,17.00
2023-04-02T08:16:57.454Z,23.25
2023-04-02T08:19:25.641Z,23.25
2023-04-02T08:21:54.590Z,27.75
2023-04-02T08:24:23.085Z,19.75
2023-04-02T08:26:53.597Z,26.75
2023-04-02T08:29:22.103Z,23.50
2023-04-02T08:31:50.468Z,24.25
2023-04-02T08:34:20.013Z,24.25
2023-04-02T08:36:48.288Z,24.75
2023-04-02T08:39:16.422Z,23.75
2023-04-02T08:41:47.122Z,26.50
2023-04-02T08:44:32.462Z,24.25
2023-04-02T08:47:03.247Z,21.25
2023-04-02T08:49:33.875Z,23.00
2023-04-02T08:52:02.089Z,26.25
2023-04-02T08:54:30.992Z,23.50
2023-04-02T08:57:02.806Z,20.50
2023-04-02T08:59:34.033Z,22.50
2023-04-02T09:02:08.220Z,22.50
2023-04-02T09:04:38.730Z,17.75
2023-04-02T09:07:07.289Z,21.25
2023-04-02T09:09:38.496Z,21.25
2023-04-02T09:12:14.860Z,19.75
2023-04-02T09:14:44.073Z,18.00
2023-04-02T09:17:16.442Z,22.00
2023-04-02T09:19:48.467Z,23.25
2023-04-02T09:22:20.968Z,22.25
2023-04-02T09:24:52.918Z,24.25
2023-04-02T09:27:22.125Z,23.50
2023-04-02T09:29:52.466Z,19.25
2023-04-02T09:32:32.156Z,17.75
2023-04-02T09:35:24.541Z,20.75
2023-04-02T09:38:13.110Z,25.50
2023-04-02T09:40:45.875Z,18.50
2023-04-02T09:43:16.156Z,14.00
2023-04-02T09:45:44.897Z,20.25
2023-04-02T09:48:24.390Z,24.75
2023-04-02T09:51:04.593Z,11.00
2023-04-02T09:53:34.928Z,21.00
2023-04-02T09:56:13.879Z,22.50
2023-04-02T09:58:44.245Z,11.25
2023-04-02T10:01:32.194Z,19.00
2023-04-02T10:04:00.525Z,18.25
2023-04-02T10:06:31.144Z,23.50
2023-04-02T10:08:59.600Z,19.50
2023-04-02T10:11:36.549Z,17.00
2023-04-02T10:14:12.143Z,15.25
2023-04-02T10:16:43.267Z,19.50
2023-04-02T10:19:17.144Z,17.50
2023-04-02T10:21:47.364Z,18.25
2023-04-02T10:24:16.363Z,17.50
2023-04-02T10:26:53.156Z,21.00
2023-04-02T10:29:28.629Z,22.75
2023-04-02T10:32:01.396Z,21.00
2023-04-02T10:34:35.662Z,15.75
2023-04-02T10:37:11.511Z,19.75
2023-04-02T10:39:41.971Z,20.25
2023-04-02T10:42:15.054Z,22.00
2023-04-02T10:44:47.538Z,19.00
2023-04-02T10:47:23.556Z,20.50
2023-04-02T10:49:57.918Z,18.00
2023-04-02T10:52:30.551Z,18.25
2023-04-02T10:55:02.059Z,22.75
2023-04-02T10:57:35.156Z,20.75
2023-04-02T11:00:16.912Z,15.75
2023-04-02T11:02:48.166Z,18.75
2023-04-02T11:05:20.015Z,18.75
2023-04-02T11:07:54.607Z,17.50
2023-04-02T11:10:23.891Z,18.00
2023-04-02T11:12:57.696Z,16.50
2023-04-02T11:15:26.200Z,18.00
2023-04-02T11:17:54.849Z,22.00
2023-04-02T11:20:53.189Z,18.00
2023-04-02T11:23:22.833Z,21.00
2023-04-02T11:25:51.233Z,19.50
2023-04-02T11:28:28.418Z,18.75
2023-04-02T11:30:57.567Z,22.00
2023-04-02T11:33:36.585Z,19.00
2023-04-02T11:36:26.947Z,17.50
2023-04-02T11:39:04.497Z,19.00
2023-04-02T11:41:54.336Z,15.00
2023-04-02T11:44:25.872Z,19.25
2023-04-02T11:46:54.177Z,19.25
2023-04-02T11:49:39.902Z,17.75
2023-04-02T11:52:25.921Z,22.75
2023-04-02T11:54:59.725Z,18.00
2023-04-02T11:57:39.312Z,25.00
2023-04-02T12:00:20.818Z,21.50
2023-04-02T12:02:55.296Z,19.25
2023-04-02T12:05:26.845Z,19.25
2023-04-02T12:08:07.657Z,16.50
2023-04-02T12:10:51.513Z,16.75
2023-04-02T12:13:21.268Z,21.75
2023-04-02T12:15:50.280Z,18.75
2023-04-02T12:18:20.641Z,22.50
2023-04-02T12:20:50.324Z,18.75
2023-04-02T12:23:22.528Z,20.50
2023-04-02T12:25:58.571Z,22.25
2023-04-02T12:28:28.975Z,23.75
2023-04-02T12:31:04.258Z,20.00
2023-04-02T12:33:37.551Z,22.75
2023-04-02T12:36:06.492Z,19.50
2023-04-02T12:38:36.936Z,16.50
2023-04-02T12:41:07.620Z,21.00
2023-04-02T12:43:37.976Z,27.50
2023-04-02T12:46:08.005Z,19.25
2023-04-02T12:48:37.236Z,18.50
2023-04-02T12:51:05.657Z,23.00
2023-04-02T12:53:37.716Z,26.75
2023-04-02T12:56:08.400Z,24.50
2023-04-02T12:58:37.779Z,20.00
2023-04-02T13:01:16.361Z,24.50
2023-04-02T13:03:44.731Z,20.75
2023-04-02T13:06:23.662Z,26.75
2023-04-02T13:08:52.346Z,23.25
2023-04-02T13:11:22.803Z,28.75
2023-04-02T13:13:51.662Z,24.50
2023-04-02T13:16:28.311Z,23.00
2023-04-02T13:19:12.901Z,24.75
2023-04-02T13:21:41.544Z,23.50
2023-04-02T13:24:17.983Z,28.75
2023-04-02T13:26:49.946Z,26.75
2023-04-02T13:29:21.259Z,19.50
2023-04-02T13:31:49.882Z,24.25
2023-04-02T13:34:18.170Z,24.25
2023-04-02T13:36:46.579Z,23.25
2023-04-02T13:39:14.652Z,23.25
2023-04-02T13:41:44.136Z,18.25
2023-04-02T13:44:25.001Z,19.75
2023-04-02T13:46:53.947Z,17.25
2023-04-02T13:49:22.450Z,16.25
2023-04-02T13:51:51.882Z,22.25
2023-04-02T13:54:22.656Z,20.50
2023-04-02T13:56:50.999Z,15.50
2023-04-02T13:59:19.288Z,19.00
2023-04-02T14:01:49.867Z,18.00
2023-04-02T14:04:20.287Z,18.75
2023-04-02T14:07:02.381Z,12.75
2023-04-02T14:09:33.669Z,16.50
2023-04-02T14:12:05.317Z,17.25
2023-04-02T14:14:41.760Z,16.75
2023-04-02T14:17:16.974Z,20.50
2023-04-02T14:19:59.506Z,16.75
2023-04-02T14:22:38.170Z,16.50
2023-04-02T14:25:11.085Z,20.00
2023-04-02T14:27:42.707Z,20.00
2023-04-02T14:30:14.650Z,19.25
2023-04-02T14:32:49.795Z,17.25
2023-04-02T14:35:22.159Z,16.50
2023-04-02T14:37:56.126Z,19.25
2023-04-02T14:40:27.207Z,16.75
2023-04-02T14:42:58.220Z,20.75
2023-04-02T14:45:32.328Z,19.50
2023-04-02T14:48:04.564Z,16.75
2023-04-02T14:50:35.193Z,17.25
2023-04-02T14:53:08.790Z,19.25
2023-04-02T14:55:39.798Z,18.25
2023-04-02T14:58:11.995Z,16.00
2023-04-02T15:00:41.464Z,18.25
2023-04-02T15:03:14.680Z,20.00
2023-04-02T15:05:44.750Z,20.50
2023-04-02T15:08:19.434Z,17.75
2023-04-02T15:10:56.330Z,21.50
2023-04-02T15:13:28.320Z,17.75
2023-04-02T15:15:58.811Z,23.00
2023-04-02T15:18:28.285Z,23.75
2023-04-02T15:21:01.314Z,17.50
2023-04-02T15:23:46.996Z,22.25
2023-04-02T15:26:19.753Z,21.50
2023-04-02T15:28:50.363Z,18.50
2023-04-02T15:31:22.730Z,19.00
2023-04-02T15:33:56.061Z,22.25
2023-04-02T15:36:33.971Z,21.75
2023-04-02T15:39:05.526Z,20.50
2023-04-02T15:41:38.154Z,20.75
2023-04-02T15:44:10.113Z,19.50
2023-04-02T15:46:45.618Z,25.00
2023-04-02T15:49:27.515Z,24.25
2023-04-02T15:52:00.832Z,20.25
2023-04-02T15:54:38.253Z,3.00
2023-04-02T15:57:15.470Z,22.50
2023-04-02T16:00:13.142Z,20.75
2023-04-02T16:02:47.651Z,17.50
2023-04-02T16:05:21.361Z,22.50
2023-04-02T16:07:56.466Z,24.00
2023-04-02T16:10:38.385Z,18.00
2023-04-02T16:13:15.488Z,18.75
2023-04-02T16:15:48.209Z,21.75
2023-04-02T16:18:18.445Z,18.75
2023-04-02T16:20:48.643Z,18.75
2023-04-02T16:23:18.942Z,17.75
2023-04-02T16:25:56.611Z,16.50
2023-04-02T16:28:25.964Z,16.75
2023-04-02T16:30:57.352Z,15.50
2023-04-02T16:33:37.880Z,16.50
2023-04-02T16:36:18.021Z,16.50
2023-04-02T16:38:50.328Z,15.25
2023-04-02T16:41:24.927Z,13.75
2023-04-02T16:43:57.752Z,18.75
2023-04-02T16:46:39.774Z,14.25
2023-04-02T16:49:17.299Z,16.25
2023-04-02T16:51:53.169Z,11.25
2023-04-02T16:54:26.702Z,17.50
2023-04-02T16:57:01.496Z,15.50
2023-04-02T16:59:36.497Z,14.50
2023-04-02T17:02:10.388Z,19.50
2023-04-02T17:04:53.979Z,19.25
2023-04-02T17:07:34.250Z,12.25
2023-04-02T17:10:17.505Z,20.00
2023-04-02T17:12:46.986Z,15.00
2023-04-02T17:18:20.680Z,18.00
2023-04-02T17:20:49.203Z,17.50
2023-04-02T17:23:55.176Z,17.50
2023-04-02T17:26:26.815Z,20.00
2023-04-02T17:28:56.201Z,21.25
2023-04-02T17:31:27.010Z,16.50
2023-04-02T17:33:55.123Z,17.00
2023-04-02T17:36:47.959Z,18.00
2023-04-02T17:39:20.972Z,17.50
2023-04-02T17:42:07.400Z,19.50
2023-04-02T17:44:46.025Z,19.00
2023-04-02T17:47:20.323Z,20.50
2023-04-02T17:50:27.328Z,13.75
2023-04-02T17:53:05.096Z,19.75
2023-04-02T17:55:40.938Z,15.00
2023-04-02T17:58:17.319Z,18.50
2023-04-02T18:01:14.432Z,14.75
2023-04-02T18:03:49.627Z,16.00
2023-04-02T18:06:20.376Z,15.25
2023-04-02T18:08:56.535Z,17.00
2023-04-02T18:11:31.260Z,17.00
2023-04-02T18:14:17.961Z,13.75
2023-04-02T18:16:50.642Z,15.00
2023-04-02T18:19:20.220Z,18.25
2023-04-02T18:21:52.558Z,13.75
2023-04-02T18:24:39.204Z,16.25
2023-04-02T18:27:17.015Z,12.00
2023-04-02T18:29:51.839Z,17.25
2023-04-02T18:32:29.351Z,15.00
2023-04-02T18:35:16.043Z,16.50
2023-04-02T18:37:48.092Z,18.75
2023-04-02T18:40:22.942Z,13.50
2023-04-02T18:42:59.203Z,17.75
2023-04-02T18:45:33.105Z,18.00
2023-04-02T18:48:08.250Z,20.50
2023-04-02T18:50:38.289Z,12.25
2023-04-02T18:53:11.990Z,14.25
2023-04-02T18:55:42.376Z,13.75
2023-04-02T18:58:14.846Z,16.00
2023-04-02T19:00:45.697Z,17.00
2023-04-02T19:03:17.756Z,18.25
2023-04-02T19:05:49.961Z,16.50
2023-04-02T19:08:23.597Z,14.25
2023-04-02T19:11:12.168Z,12.50
2023-04-02T19:13:41.777Z,16.00
2023-04-02T19:16:22.939Z,15.50
2023-04-02T19:18:57.956Z,16.75
2023-04-02T19:21:33.793Z,17.50
2023-04-02T19:24:09.269Z,9.50
2023-04-02T19:26:42.068Z,15.50
2023-04-02T19:29:19.832Z,16.00
2023-04-02T19:31:54.259Z,16.50
2023-04-02T19:34:28.320Z,12.00
2023-04-02T19:36:58.401Z,15.75
2023-04-02T19:39:41.786Z,15.50
2023-04-02T19:42:15.144Z,13.00
2023-04-02T19:44:47.019Z,18.00
2023-04-02T19:47:16.005Z,17.50
2023-04-02T19:49:44.409Z,12.25
2023-04-02T19:52:13.339Z,11.50
2023-04-02T19:54:41.777Z,16.25
2023-04-02T19:57:13.656Z,16.75
2023-04-02T19:59:41.972Z,16.50
2023-04-02T20:02:12.218Z,16.75
2023-04-02T20:04:42.680Z,21.00
2023-04-02T20:07:10.800Z,18.00
2023-04-02T20:09:39.395Z,16.25
2023-04-02T20:12:08.141Z,16.25
2023-04-02T20:14:37.105Z,17.50
2023-04-02T20:17:06.570Z,18.75
2023-04-02T20:19:36.930Z,19.25
2023-04-02T20:22:05.504Z,17.00
2023-04-02T20:24:34.053Z,17.25
2023-04-02T20:27:03.269Z,18.25
2023-04-02T20:29:32.423Z,18.75
2023-04-02T20:32:00.747Z,18.25
2023-04-02T20:34:29.272Z,18.50
2023-04-02T20:36:59.939Z,20.25
2023-04-02T20:39:28.913Z,19.75
2023-04-02T20:42:01.059Z,19.50
2023-04-02T20:44:29.669Z,19.00
2023-04-02T20:46:57.872Z,15.50
2023-04-02T20:49:26.702Z,20.50
2023-04-02T20:51:57.189Z,18.25
2023-04-02T20:54:26.740Z,17.00
2023-04-02T20:56:54.934Z,21.50
2023-04-02T20:59:23.027Z,25.50
2023-04-02T21:01:51.327Z,19.00
2023-04-02T21:04:19.983Z,19.75
2023-04-02T21:06:48.777Z,18.50
2023-04-02T21:09:17.889Z,17.75
2023-04-02T21:11:47.582Z,18.00
2023-04-02T21:14:15.704Z,17.50
2023-04-02T21:16:43.792Z,20.00
2023-04-02T21:19:12.473Z,20.75
2023-04-02T21:21:42.013Z,17.00
2023-04-02T21:24:10.577Z,16.25
2023-04-02T21:26:39.534Z,18.50
2023-04-02T21:29:09.095Z,16.50
2023-04-02T21:31:38.344Z,20.33
2023-04-02T21:34:07.685Z,15.25
2023-04-02T21:36:36.337Z,22.75
2023-04-02T21:39:06.316Z,17.25
2023-04-02T21:41:35.391Z,16.25
2023-04-02T21:44:04.893Z,17.25
2023-04-02T21:46:35.544Z,18.25
2023-04-02T21:49:03.729Z,18.75
2023-04-02T21:51:32.454Z,17.00
2023-04-02T21:54:01.043Z,19.75
2023-04-02T21:56:29.885Z,20.75
2023-04-02T21:58:58.819Z,17.50
2023-04-02T22:01:28.130Z,15.50
2023-04-02T22:03:58.296Z,14.75
2023-04-02T22:06:27.286Z,21.50
2023-04-02T22:08:56.328Z,15.25
2023-04-02T22:11:25.284Z,22.25
2023-04-02T22:13:54.011Z,20.00
2023-04-02T22:16:24.022Z,22.00
2023-04-02T22:18:53.407Z,22.75
2023-04-02T22:21:23.390Z,28.25
2023-04-02T22:23:51.613Z,21.75
2023-04-02T22:26:20.907Z,21.50
2023-04-02T22:28:48.974Z,18.50
2023-04-02T22:31:17.921Z,20.00
2023-04-02T22:33:46.687Z,23.00
2023-04-02T22:36:15.508Z,15.00
2023-04-02T22:38:45.130Z,20.25
2023-04-02T22:41:14.123Z,24.75
2023-04-02T22:43:44.001Z,18.75
2023-04-02T22:46:13.074Z,22.67
2023-04-02T22:48:41.595Z,20.75
2023-04-02T22:51:10.572Z,14.00
2023-04-02T22:53:39.100Z,18.00
2023-04-02T22:56:09.313Z,19.25
2023-04-02T22:58:37.530Z,20.25
2023-04-02T23:01:06.107Z,20.75
2023-04-02T23:03:34.368Z,19.75
2023-04-02T23:06:03.108Z,21.50
2023-04-02T23:08:31.170Z,23.00
2023-04-02T23:11:02.864Z,15.75
2023-04-02T23:13:33.116Z,20.00
2023-04-02T23:16:01.642Z,18.75
2023-04-02T23:18:30.014Z,15.75
2023-04-02T23:20:58.262Z,20.00
2023-04-02T23:23:27.098Z,19.25
2023-04-02T23:26:03.547Z,17.25
2023-04-02T23:28:33.089Z,21.00
2023-04-02T23:31:02.563Z,19.75
2023-04-02T23:33:30.886Z,20.75
2023-04-02T23:35:59.171Z,19.00
2023-04-02T23:38:27.536Z,20.50
2023-04-02T23:40:55.595Z,19.25
2023-04-02T23:43:23.597Z,23.75
2023-04-02T23:45:53.061Z,15.75
2023-04-02T23:48:21.143Z,22.50
2023-04-02T23:50:49.185Z,19.25
2023-04-02T23:53:18.841Z,11.25
2023-04-02T23:55:47.121Z,24.25
2023-04-02T23:58:15.184Z,25.25
